Yellowstone Airport West Yellowstone US
ICAO: KWYS
IATA: WYS
Category: Medium
Scheduled Services: No

Elevation: 6649 ft
TransAlt. 18000 ft.

Airport Communications:
SALT LAKE CITY CNTR:132.4
GREAT FALLS RDO:119.4
CTAF/UNICOM:123

KWYS Zoom In..

If you have problems with the map follow the link
https://www.worldairports.se/pages/airport.php?
ICAO=KWYS

Runways:

(A) RW 01 length 8400 ft width 150 ft
ILS 110.70 / hdg 12

(B) RW 19 length 8400 ft width 150 ft
---- / hdg 192

Location; KWYS
Day. 25 / Time. 23.05 Zulu
* Altimeter: 30.05
* Temperature: -03° c. -26.6°f.
* Wind from: 220° Speed 10 kn.
Dewpoint: -04° c.
Visibility: 1 m.
Clouds: Broken 1100 ft.
Clouds: Broken 1800 ft.
Clouds: Broken 4300 ft.
Conditions: Light Snow.

KWYS 252305Z AUTO 22010KT 1 1/2SM -SN BKN011 BKN018 BKN043 M03/M04 A3005 RMK AO2


Wind From 220°
Speed 10 kn.

 
 
jpsmedia worldairports.se 2020   terms of use